Time;durP1;ratioP1;P1;durP2;ratioP2;P2;SDS_P1;SDS_P2;PMS_P1;PMS_P2;Temp;Humidity;BMP_temperature;BMP_pressure;BME280_temperature;BME280_humidity;BME280_pressure;Samples;Min_cycle;Max_cycle;Signal;HPM_P1;HPM_P2
2021/04/16 00:01:22;;;;;;;8.30;5.53;;;;;;;3.71;53.70;94956.78;2995006;39;20107;-70
2021/04/16 00:03:24;;;;;;;7.35;5.10;;;;;;;3.71;53.65;94959.38;2993178;39;20063;-71
2021/04/16 00:05:26;;;;;;;7.72;5.35;;;;;;;3.63;53.61;94954.72;2982578;39;20050;-71
2021/04/16 00:07:28;;;;;;;6.30;5.20;;;;;;;3.58;53.76;94956.84;2986979;39;20486;-71
2021/04/16 00:09:29;;;;;;;8.10;5.10;;;;;;;3.52;53.94;94958.09;2992137;39;20139;-72
2021/04/16 00:11:30;;;;;;;7.63;5.20;;;;;;;3.47;54.40;94952.44;2982360;39;20059;-72
2021/04/16 00:13:31;;;;;;;8.80;5.07;;;;;;;3.63;53.69;94952.16;2992777;39;20070;-71
2021/04/16 00:15:36;;;;;;;6.38;4.78;;;;;;;3.57;53.91;94950.84;2996067;39;20071;-70
2021/04/16 00:17:38;;;;;;;7.82;5.55;;;;;;;3.59;53.80;94950.72;2984587;39;20141;-71
2021/04/16 00:19:39;;;;;;;7.07;5.18;;;;;;;3.54;53.75;94943.28;2992546;39;20079;-72
2021/04/16 00:21:41;;;;;;;5.55;4.47;;;;;;;3.62;53.81;94950.50;2986842;39;20059;-73
2021/04/16 00:23:42;;;;;;;7.10;5.07;;;;;;;3.60;53.71;94948.00;2990361;39;20307;-71
2021/04/16 00:25:43;;;;;;;8.70;5.07;;;;;;;3.56;53.76;94954.34;2990822;39;20087;-70
2021/04/16 00:27:45;;;;;;;8.30;5.50;;;;;;;3.57;53.65;94947.41;2984423;39;20500;-72
2021/04/16 00:29:46;;;;;;;8.48;5.53;;;;;;;3.56;53.67;94944.00;2991869;39;20119;-71
2021/04/16 00:31:51;;;;;;;8.75;5.38;;;;;;;3.62;53.88;94943.56;2990999;39;20055;-72
2021/04/16 00:33:53;;;;;;;7.10;5.30;;;;;;;3.68;53.63;94944.88;2991561;39;20063;-71
2021/04/16 00:35:55;;;;;;;6.78;4.65;;;;;;;3.71;53.56;94949.81;2995189;39;20078;-72
2021/04/16 00:37:56;;;;;;;7.35;5.15;;;;;;;3.67;53.79;94945.81;2974062;40;20082;-72
2021/04/16 00:39:58;;;;;;;8.75;5.10;;;;;;;3.65;53.68;94951.09;2990650;39;20075;-71
2021/04/16 00:41:59;;;;;;;7.60;5.10;;;;;;;3.64;53.71;94957.22;2992184;39;20062;-71
2021/04/16 00:44:00;;;;;;;7.15;5.35;;;;;;;3.62;53.17;94959.09;2993092;39;20058;-73
2021/04/16 00:46:10;;;;;;;7.13;5.10;;;;;;;3.56;53.78;94958.72;2994362;39;20086;-70
2021/04/16 00:48:27;;;;;;;8.35;5.47;;;;;;;3.51;53.98;94964.22;2994052;39;20085;-72
2021/04/16 00:50:34;;;;;;;8.23;5.60;;;;;;;3.54;53.94;94961.41;2987085;39;20054;-71
2021/04/16 00:52:35;;;;;;;8.77;5.38;;;;;;;3.48;54.43;94961.84;2980958;39;20052;-71
2021/04/16 00:54:40;;;;;;;8.30;5.07;;;;;;;3.51;54.01;94968.56;2989256;39;20050;-71
2021/04/16 00:56:41;;;;;;;7.10;4.78;;;;;;;3.48;53.83;94967.88;2984067;39;20075;-71
2021/04/16 00:58:43;;;;;;;7.47;5.13;;;;;;;3.53;53.81;94964.94;2983302;39;20084;-71
2021/04/16 01:00:49;;;;;;;6.65;5.53;;;;;;;3.54;53.87;94953.63;2993968;39;20364;-71
2021/04/16 01:02:50;;;;;;;6.72;5.22;;;;;;;3.52;53.63;94954.69;2984212;39;20059;-71
2021/04/16 01:04:51;;;;;;;7.97;5.43;;;;;;;3.52;53.89;94942.56;2983960;39;20066;-72
2021/04/16 01:06:53;;;;;;;8.10;5.82;;;;;;;3.47;54.02;94952.44;2994248;39;20083;-71
2021/04/16 01:08:54;;;;;;;9.27;5.85;;;;;;;3.46;53.86;94948.16;2983452;39;20633;-71
2021/04/16 01:10:55;;;;;;;10.07;6.20;;;;;;;3.52;53.86;94952.91;2982930;39;20058;-71
2021/04/16 01:12:57;;;;;;;8.35;5.63;;;;;;;3.51;53.89;94950.44;2993440;39;20058;-70
2021/04/16 01:15:04;;;;;;;7.65;5.63;;;;;;;3.48;53.97;94941.13;2993525;39;20051;-72
2021/04/16 01:17:07;;;;;;;8.45;5.82;;;;;;;3.46;53.86;94954.19;2985418;39;20405;-71
2021/04/16 01:19:25;;;;;;;7.10;5.13;;;;;;;3.51;53.51;94948.69;2993238;39;20047;-71
2021/04/16 01:21:35;;;;;;;7.68;6.15;;;;;;;3.46;53.60;94948.16;2983271;39;20087;-74
2021/04/16 01:23:55;;;;;;;8.93;5.72;;;;;;;3.46;53.56;94948.16;2974629;40;20075;-71
2021/04/16 01:25:57;;;;;;;7.55;5.40;;;;;;;3.37;53.68;94943.66;2999408;39;20407;-70
2021/04/16 01:27:58;;;;;;;10.25;6.47;;;;;;;3.30;53.56;94943.25;2983597;39;20056;-72
2021/04/16 01:30:09;;;;;;;5.82;4.95;;;;;;;3.32;53.71;94948.34;2986385;39;20054;-71
2021/04/16 01:32:39;;;;;;;6.72;5.28;;;;;;;3.35;53.26;94948.13;2985856;39;20044;-71
2021/04/16 01:34:40;;;;;;;8.50;5.13;;;;;;;3.24;53.59;94941.09;2993684;39;20058;-70
2021/04/16 01:36:41;;;;;;;7.10;4.88;;;;;;;3.23;53.59;94936.88;2993027;39;20058;-70
2021/04/16 01:38:44;;;;;;;10.02;5.90;;;;;;;3.21;53.72;94952.50;2984013;39;20063;-70
2021/04/16 01:40:45;;;;;;;6.95;4.95;;;;;;;3.28;53.61;94939.97;2982633;39;20456;-70
2021/04/16 01:42:47;;;;;;;10.05;5.25;;;;;;;3.26;53.69;94939.25;2992779;39;20055;-84
2021/04/16 01:44:48;;;;;;;7.40;5.05;;;;;;;3.16;54.00;94944.25;2986247;39;20073;-84
2021/04/16 01:47:07;;;;;;;6.68;5.15;;;;;;;3.12;53.85;94949.72;2989683;39;20435;-84
2021/04/16 01:49:08;;;;;;;8.40;4.88;;;;;;;3.22;53.87;94950.75;2981835;39;20055;-84
2021/04/16 01:51:17;;;;;;;8.77;5.30;;;;;;;3.23;53.73;94948.06;2994953;39;20053;-86
2021/04/16 01:53:18;;;;;;;7.45;5.30;;;;;;;3.20;53.58;94943.06;2980961;39;20073;-85
2021/04/16 01:55:20;;;;;;;7.75;4.90;;;;;;;3.23;53.65;94942.88;2995189;39;20082;-84
2021/04/16 01:57:25;;;;;;;7.20;5.30;;;;;;;3.17;53.95;94942.47;2995368;39;20079;-84
2021/04/16 01:59:37;;;;;;;8.75;4.88;;;;;;;3.13;53.65;94936.69;2986581;39;20641;-84
2021/04/16 02:01:39;;;;;;;8.73;5.93;;;;;;;3.17;53.70;94934.72;2986291;39;20066;-84
2021/04/16 02:03:40;;;;;;;8.80;6.03;;;;;;;3.21;53.87;94929.22;2995280;39;20250;-85
2021/04/16 02:05:41;;;;;;;7.43;4.90;;;;;;;3.23;53.43;94942.88;2995158;39;20046;-84
2021/04/16 02:07:43;;;;;;;8.77;5.10;;;;;;;3.24;53.33;94939.34;2980973;39;20084;-84
2021/04/16 02:09:44;;;;;;;6.10;4.82;;;;;;;3.20;53.42;94937.06;2993661;39;20143;-85
2021/04/16 02:11:46;;;;;;;7.13;5.07;;;;;;;3.16;53.40;94938.22;2985064;39;20441;-85
2021/04/16 02:13:47;;;;;;;8.82;5.05;;;;;;;3.19;53.13;94938.84;2989827;39;20490;-86
2021/04/16 02:15:48;;;;;;;6.63;4.95;;;;;;;3.16;53.42;94930.47;2998970;39;20419;-83
2021/04/16 02:17:50;;;;;;;6.43;4.95;;;;;;;3.22;53.22;94936.03;2999170;39;20355;-87
2021/04/16 02:19:52;;;;;;;6.13;4.65;;;;;;;3.26;53.33;94941.81;2979826;39;20044;-85
2021/04/16 02:21:54;;;;;;;9.57;5.07;;;;;;;3.29;52.92;94939.00;2984850;39;20412;-86
2021/04/16 02:23:55;;;;;;;7.95;4.97;;;;;;;3.25;53.01;94935.81;2996791;39;20415;-84
2021/04/16 02:26:14;;;;;;;6.75;4.57;;;;;;;3.25;53.09;94935.00;2986167;39;20053;-86
2021/04/16 02:28:15;;;;;;;7.38;4.78;;;;;;;3.28;53.02;94934.78;2974497;39;20322;-84
2021/04/16 02:30:29;;;;;;;7.75;4.82;;;;;;;3.21;53.28;94944.75;2993194;39;20051;-83
2021/04/16 02:32:30;;;;;;;6.40;4.72;;;;;;;3.13;53.39;94943.63;3001363;39;20083;-86
2021/04/16 02:34:32;;;;;;;5.65;4.25;;;;;;;3.09;53.44;94943.00;2985912;39;20060;-84
2021/04/16 02:36:33;;;;;;;5.53;4.20;;;;;;;3.05;53.42;94945.00;2986241;39;20074;-85
2021/04/16 02:38:34;;;;;;;9.20;4.40;;;;;;;3.08;53.54;94934.44;2995612;39;20062;-87
2021/04/16 02:40:36;;;;;;;7.38;4.00;;;;;;;3.15;53.06;94934.00;2990012;39;20089;-85
2021/04/16 02:42:37;;;;;;;6.22;4.40;;;;;;;3.17;53.09;94934.72;2999791;39;20043;-86
2021/04/16 02:44:39;;;;;;;7.28;4.22;;;;;;;3.12;53.51;94942.81;2998147;39;20596;-84
2021/04/16 02:46:40;;;;;;;6.25;4.10;;;;;;;3.07;53.53;94940.53;2982097;39;20068;-85
2021/04/16 02:48:42;;;;;;;8.70;4.38;;;;;;;3.07;53.68;94950.06;2988226;39;20087;-85
2021/04/16 02:50:43;;;;;;;6.38;4.38;;;;;;;3.08;53.79;94956.91;2979623;39;20142;-85
2021/04/16 02:52:45;;;;;;;7.20;4.70;;;;;;;3.10;53.84;94956.78;3002572;39;20126;-86
2021/04/16 02:54:46;;;;;;;5.72;4.38;;;;;;;3.09;53.68;94945.59;2986315;39;20055;-87
2021/04/16 02:56:47;;;;;;;9.10;4.80;;;;;;;3.12;53.76;94954.91;2996540;39;20151;-85
2021/04/16 02:58:49;;;;;;;7.65;4.57;;;;;;;3.03;54.00;94951.19;2997326;39;20054;-84
2021/04/16 03:00:50;;;;;;;7.40;4.28;;;;;;;3.03;53.90;94948.63;2981826;39;20310;-84
2021/04/16 03:02:51;;;;;;;6.00;4.43;;;;;;;2.97;54.20;94952.47;2990546;39;20051;-83
2021/04/16 03:04:52;;;;;;;7.38;5.18;;;;;;;2.91;54.32;94945.13;2991247;39;20109;-84
2021/04/16 03:06:54;;;;;;;7.22;4.55;;;;;;;2.93;54.39;94952.78;2999105;39;20082;-84
2021/04/16 03:08:57;;;;;;;7.28;4.32;;;;;;;2.94;54.42;94952.66;3000069;39;20059;-85
2021/04/16 03:11:00;;;;;;;8.13;4.85;;;;;;;2.97;54.51;94949.03;2993177;39;20091;-86
2021/04/16 03:13:02;;;;;;;6.72;4.60;;;;;;;3.02;54.35;94952.16;2995911;39;20033;-83
2021/04/16 03:15:04;;;;;;;6.60;4.68;;;;;;;3.05;54.36;94942.41;2981947;39;20063;-72
2021/04/16 03:17:06;;;;;;;6.63;4.72;;;;;;;2.98;54.60;94937.75;2983367;39;20401;-70
2021/04/16 03:19:10;;;;;;;7.18;4.75;;;;;;;2.98;54.45;94943.75;2978979;39;20312;-72
2021/04/16 03:21:11;;;;;;;7.40;5.22;;;;;;;3.02;54.37;94947.78;2980537;39;20083;-73
2021/04/16 03:23:13;;;;;;;7.15;4.85;;;;;;;3.06;54.49;94941.47;2992633;39;20047;-71
2021/04/16 03:25:16;;;;;;;6.75;4.95;;;;;;;3.02;54.56;94949.56;2985156;39;20059;-74
2021/04/16 03:27:17;;;;;;;7.80;4.47;;;;;;;3.00;54.48;94960.00;2992673;39;20054;-71
2021/04/16 03:29:19;;;;;;;6.22;4.82;;;;;;;3.00;54.63;94954.00;2992780;39;20063;-73
2021/04/16 03:31:20;;;;;;;6.30;4.97;;;;;;;2.89;54.78;94957.34;2975678;39;20099;-70
2021/04/16 03:33:22;;;;;;;8.18;5.07;;;;;;;2.87;54.87;94964.38;2990490;39;20427;-71
2021/04/16 03:35:24;;;;;;;8.00;4.55;;;;;;;2.88;54.35;94958.25;2991222;39;20351;-71
2021/04/16 03:37:25;;;;;;;7.35;5.13;;;;;;;2.76;55.08;94970.31;2995830;39;20051;-71
2021/04/16 03:39:26;;;;;;;8.90;4.72;;;;;;;2.79;54.63;94956.31;2998163;39;20038;-71
2021/04/16 03:41:28;;;;;;;6.93;4.38;;;;;;;2.84;54.92;94962.03;2983077;39;20066;-72
2021/04/16 03:43:29;;;;;;;7.22;4.63;;;;;;;2.91;54.80;94952.06;2992634;39;20180;-71
2021/04/16 03:45:33;;;;;;;8.15;4.93;;;;;;;2.98;54.40;94958.47;2988367;39;20388;-73
2021/04/16 03:47:34;;;;;;;8.52;4.68;;;;;;;3.00;54.84;94960.00;2995469;39;20123;-72
2021/04/16 03:49:36;;;;;;;7.60;5.30;;;;;;;2.99;54.39;94965.28;2983763;39;20058;-70
2021/04/16 03:51:58;;;;;;;6.80;4.50;;;;;;;3.05;54.32;94968.31;2989179;39;20044;-72
2021/04/16 03:54:01;;;;;;;8.90;5.68;;;;;;;3.04;54.25;94973.56;2982786;39;20063;-71
2021/04/16 03:56:02;;;;;;;9.15;6.10;;;;;;;3.06;54.19;94971.72;2991217;39;20072;-70
2021/04/16 03:58:05;;;;;;;7.75;5.20;;;;;;;3.03;54.24;94971.91;2992362;39;20073;-71
2021/04/16 04:00:09;;;;;;;8.02;5.25;;;;;;;3.06;54.13;94976.88;2990440;39;20128;-85
2021/04/16 04:02:10;;;;;;;;;;;;;;;3.04;54.15;94971.81;2988917;40;20090;-84
2021/04/16 04:04:11;;;;;;;7.05;5.40;;;;;;;3.16;54.41;94977.91;3000150;39;19931;-86
2021/04/16 04:06:13;;;;;;;7.45;5.07;;;;;;;3.19;54.01;94977.69;3001114;39;20027;-85
2021/04/16 04:08:14;;;;;;;8.13;5.72;;;;;;;3.25;53.73;94976.44;3004158;39;20079;-86
2021/04/16 04:10:20;;;;;;;8.95;6.05;;;;;;;3.34;53.65;94972.38;3000504;39;20056;-84
2021/04/16 04:12:21;;;;;;;7.97;5.50;;;;;;;3.42;53.66;94977.81;3005560;39;20035;-86
2021/04/16 04:14:23;;;;;;;7.03;5.32;;;;;;;3.43;53.88;94975.13;2997702;39;20043;-86
2021/04/16 04:16:25;;;;;;;9.05;6.07;;;;;;;3.51;53.44;94977.19;2998336;39;20063;-85
2021/04/16 04:18:28;;;;;;;8.98;6.03;;;;;;;3.55;53.18;94978.63;2989081;39;20431;-87
2021/04/16 04:20:31;;;;;;;9.05;5.72;;;;;;;3.57;53.27;94978.47;2987434;39;20028;-83
2021/04/16 04:22:33;;;;;;;8.07;5.60;;;;;;;3.51;53.74;94977.19;2993477;39;20100;-87
2021/04/16 04:24:34;;;;;;;10.77;6.60;;;;;;;3.59;53.79;94985.25;2997541;39;20048;-88
2021/04/16 04:26:35;;;;;;;8.60;6.28;;;;;;;3.54;53.27;94976.13;2996687;39;20352;-86
2021/04/16 04:28:36;;;;;;;10.52;6.68;;;;;;;3.56;54.00;94989.78;2987153;39;20062;-86
2021/04/16 04:30:38;;;;;;;9.70;6.55;;;;;;;3.62;53.37;94979.81;3000752;39;20031;-86
2021/04/16 04:32:39;;;;;;;8.10;5.90;;;;;;;3.73;53.33;94989.41;2986260;39;20113;-87
2021/04/16 04:34:40;;;;;;;9.98;6.13;;;;;;;3.80;53.01;94987.22;2998889;39;20372;-87
2021/04/16 04:36:42;;;;;;;14.10;7.55;;;;;;;3.87;52.86;94984.06;2987849;39;20500;-87
2021/04/16 04:38:43;;;;;;;8.65;5.85;;;;;;;3.96;52.91;94992.94;2997635;39;20280;-85
2021/04/16 04:40:45;;;;;;;10.98;7.05;;;;;;;4.08;52.39;94986.03;2991828;39;20042;-85
2021/04/16 04:42:46;;;;;;;10.68;6.40;;;;;;;4.04;52.45;94990.63;2979323;40;20079;-85
2021/04/16 04:44:47;;;;;;;9.38;6.63;;;;;;;4.14;52.42;94980.38;2982498;39;20049;-87
2021/04/16 04:46:49;;;;;;;10.77;6.05;;;;;;;3.87;53.17;94986.66;2989357;39;20063;-87
2021/04/16 04:48:50;;;;;;;13.23;6.88;;;;;;;3.81;53.57;94989.69;2985905;39;20052;-70
2021/04/16 04:50:52;;;;;;;9.85;6.68;;;;;;;3.84;53.66;94989.47;2990301;39;20083;-73
2021/04/16 04:52:54;;;;;;;9.73;7.35;;;;;;;3.88;53.24;94996.06;2992931;39;20507;-72
2021/04/16 04:54:58;;;;;;;10.40;6.90;;;;;;;3.72;53.46;94997.28;2983060;39;20302;-71
2021/04/16 04:56:59;;;;;;;11.95;6.32;;;;;;;3.89;53.43;95004.66;2989012;39;20062;-73
2021/04/16 04:59:00;;;;;;;9.55;6.53;;;;;;;3.98;52.51;95011.81;2978506;39;20111;-72
2021/04/16 05:01:01;;;;;;;10.75;5.97;;;;;;;4.02;53.02;95009.78;2991688;39;20416;-74
2021/04/16 05:03:03;;;;;;;10.15;6.30;;;;;;;3.99;52.92;95007.44;2988853;39;20047;-72
2021/04/16 05:05:05;;;;;;;10.13;6.03;;;;;;;4.16;52.92;95003.63;2979287;39;20364;-73
2021/04/16 05:07:07;;;;;;;13.27;6.65;;;;;;;4.17;52.86;95006.09;2989043;39;20075;-72
2021/04/16 05:09:08;;;;;;;9.52;6.57;;;;;;;4.30;52.42;95013.78;2991319;39;20088;-75
2021/04/16 05:11:11;;;;;;;9.88;7.15;;;;;;;4.22;52.78;95006.59;2988126;39;20066;-73
2021/04/16 05:13:12;;;;;;;9.48;7.03;;;;;;;3.90;53.77;95009.75;2997993;39;20752;-73
2021/04/16 05:15:15;;;;;;;14.05;6.80;;;;;;;3.66;54.38;95006.34;2988686;39;20080;-72
2021/04/16 05:17:16;;;;;;;9.27;6.20;;;;;;;3.10;55.38;95011.13;2982763;39;20075;-72
2021/04/16 05:19:17;;;;;;;12.40;7.10;;;;;;;2.86;56.75;95019.66;2976144;39;20058;-72
2021/04/16 05:21:19;;;;;;;11.55;8.32;;;;;;;2.76;57.24;95016.88;2985857;39;20046;-73
2021/04/16 05:23:20;;;;;;;12.80;8.05;;;;;;;2.94;57.02;95019.94;2989299;39;20156;-72
2021/04/16 05:25:21;;;;;;;14.75;8.68;;;;;;;2.89;56.43;95026.41;2981606;39;20109;-71
2021/04/16 05:27:23;;;;;;;10.80;7.45;;;;;;;3.04;56.24;95015.81;2992594;39;20403;-71
2021/04/16 05:29:24;;;;;;;12.02;8.00;;;;;;;3.23;56.37;95015.38;2992520;39;20074;-73
2021/04/16 05:31:26;;;;;;;11.60;6.78;;;;;;;3.42;55.36;95027.00;2986002;39;20476;-74
2021/04/16 05:33:27;;;;;;;12.77;6.68;;;;;;;3.63;54.77;95022.09;2983840;39;20493;-72
2021/04/16 05:35:29;;;;;;;11.25;6.13;;;;;;;3.39;54.39;95020.28;2993048;39;20492;-71
2021/04/16 05:37:30;;;;;;;8.75;6.03;;;;;;;3.39;55.19;95024.66;2992655;39;20066;-73
2021/04/16 05:39:32;;;;;;;8.88;6.28;;;;;;;3.71;54.31;95026.75;2982892;39;20158;-71
2021/04/16 05:41:33;;;;;;;8.63;5.70;;;;;;;3.95;53.27;95017.19;2992779;39;20043;-72
2021/04/16 05:43:34;;;;;;;14.38;6.18;;;;;;;3.93;53.45;95021.66;2992760;39;20380;-73
2021/04/16 05:45:36;;;;;;;8.05;5.70;;;;;;;4.04;52.39;95023.47;2996141;39;20050;-73
2021/04/16 05:47:37;;;;;;;8.07;6.13;;;;;;;4.16;52.15;95020.00;2992342;39;20049;-72
2021/04/16 05:49:39;;;;;;;9.65;6.20;;;;;;;4.25;52.30;95023.69;2983462;39;20468;-73
2021/04/16 05:51:40;;;;;;;9.05;6.32;;;;;;;4.32;51.47;95022.28;2983163;39;20078;-73
2021/04/16 05:53:41;;;;;;;6.63;5.50;;;;;;;4.45;50.54;95025.66;2992871;39;20110;-73
2021/04/16 05:55:42;;;;;;;8.25;5.50;;;;;;;4.54;50.09;95013.75;2991937;39;20059;-71
2021/04/16 05:57:44;;;;;;;8.40;5.35;;;;;;;4.47;49.90;95012.53;2989682;39;20047;-71
2021/04/16 05:59:45;;;;;;;8.25;5.47;;;;;;;4.02;50.85;95027.94;2975429;39;20054;-70
2021/04/16 06:01:46;;;;;;;10.25;4.93;;;;;;;4.02;50.57;95017.56;2992640;39;20099;-73
2021/04/16 06:03:49;;;;;;;8.73;5.70;;;;;;;4.10;50.35;95021.25;2995843;39;20083;-73
2021/04/16 06:05:50;;;;;;;9.32;5.03;;;;;;;4.40;49.03;95013.94;2993930;39;20043;-73
2021/04/16 06:07:54;;;;;;;8.43;4.90;;;;;;;4.21;49.53;95011.88;2988926;39;20047;-75
2021/04/16 06:09:56;;;;;;;8.68;5.35;;;;;;;3.99;50.32;95015.22;2987371;39;20380;-74
2021/04/16 06:11:57;;;;;;;8.48;5.60;;;;;;;3.80;51.00;95006.16;2991663;39;20405;-72
2021/04/16 06:13:59;;;;;;;7.82;4.40;;;;;;;4.08;50.25;95012.78;2992764;39;20062;-72
2021/04/16 06:16:01;;;;;;;8.30;5.57;;;;;;;4.29;50.09;95010.38;2983174;39;20051;-73
2021/04/16 06:18:02;;;;;;;11.25;6.18;;;;;;;4.13;50.28;95015.06;2993321;39;20419;-74
2021/04/16 06:20:06;;;;;;;10.13;5.55;;;;;;;4.25;50.39;95011.53;2992922;39;20418;-89
2021/04/16 06:22:11;;;;;;;9.73;5.97;;;;;;;4.49;50.27;95006.28;2997311;39;20046;-89
2021/04/16 06:24:12;;;;;;;7.97;5.28;;;;;;;4.02;50.70;95021.03;2988257;39;20035;-86
2021/04/16 06:26:13;;;;;;;12.88;5.75;;;;;;;3.92;51.32;95017.44;2988508;39;20067;-88
2021/04/16 06:28:15;;;;;;;7.25;5.35;;;;;;;3.94;51.15;95020.75;2998766;39;20396;-89
2021/04/16 06:30:19;;;;;;;9.23;5.60;;;;;;;3.89;51.18;95015.03;3000457;39;20047;-87
2021/04/16 06:32:21;;;;;;;8.70;6.13;;;;;;;3.98;50.57;95017.00;2988524;39;20040;-85
2021/04/16 06:34:25;;;;;;;8.65;5.55;;;;;;;3.81;50.96;95002.66;2994657;39;20055;-73
2021/04/16 06:36:26;;;;;;;11.30;5.60;;;;;;;3.92;51.33;95001.88;2992473;39;20067;-72
2021/04/16 06:38:31;;;;;;;6.90;5.00;;;;;;;3.84;50.93;95001.59;2990630;39;20055;-72
2021/04/16 06:40:33;;;;;;;11.68;5.78;;;;;;;4.17;51.05;95005.25;2979530;39;20083;-71
2021/04/16 06:42:34;;;;;;;8.30;6.05;;;;;;;4.28;50.02;95005.28;2979808;39;20054;-72
2021/04/16 06:44:36;;;;;;;8.88;5.63;;;;;;;4.57;49.06;95004.91;2980280;39;20066;-74
2021/04/16 06:46:40;;;;;;;6.65;4.75;;;;;;;4.79;47.61;95004.94;2982902;39;20120;-72
2021/04/16 06:48:41;;;;;;;10.70;4.97;;;;;;;4.97;47.19;95014.88;2992436;39;20077;-74
2021/04/16 06:50:42;;;;;;;10.25;4.85;;;;;;;5.19;47.26;95012.28;2983366;39;20455;-72
2021/04/16 06:53:03;;;;;;;9.48;5.60;;;;;;;5.37;47.99;95007.41;2992126;39;20047;-74
2021/04/16 06:55:31;;;;;;;8.57;5.72;;;;;;;5.49;47.98;95011.66;2981916;39;20269;-73
2021/04/16 06:57:42;;;;;;;8.73;6.03;;;;;;;5.10;48.65;95013.81;2980145;39;20063;-73
2021/04/16 06:59:56;;;;;;;7.78;5.97;;;;;;;4.87;49.15;95010.38;2980750;39;20112;-74
2021/04/16 07:02:01;;;;;;;;;;;;;;;4.41;49.61;95016.44;2983675;39;20138;-74
2021/04/16 07:04:13;;;;;;;9.27;6.65;;;;;;;4.36;50.09;95015.94;2980139;39;19928;-73
2021/04/16 07:06:22;;;;;;;9.05;5.95;;;;;;;4.28;50.35;95019.09;2992559;39;20201;-72
2021/04/16 07:08:44;;;;;;;10.65;6.95;;;;;;;4.70;49.58;95014.25;2983242;39;20412;-72
2021/04/16 07:10:46;;;;;;;9.57;5.95;;;;;;;4.70;48.96;95019.44;2973537;39;20068;-73
2021/04/16 07:12:49;;;;;;;11.02;6.80;;;;;;;4.88;48.74;95025.03;2980550;39;20100;-72
2021/04/16 07:14:58;;;;;;;9.07;5.57;;;;;;;4.97;48.35;95027.84;2984211;39;20404;-72
2021/04/16 07:17:00;;;;;;;9.85;5.80;;;;;;;4.90;48.55;95025.75;2984428;39;20047;-72
2021/04/16 07:19:06;;;;;;;9.65;6.25;;;;;;;5.02;48.65;95015.34;2981979;39;20043;-73
2021/04/16 07:21:09;;;;;;;8.85;6.28;;;;;;;5.04;48.00;95035.06;2983294;39;20151;-73
2021/04/16 07:23:11;;;;;;;8.48;5.15;;;;;;;4.83;49.08;95021.94;2979342;39;20359;-73
2021/04/16 07:25:20;;;;;;;11.27;7.25;;;;;;;5.20;47.44;95021.72;2974614;39;20051;-73
2021/04/16 07:27:42;;;;;;;15.45;7.53;;;;;;;4.95;47.70;95019.34;2980133;39;20083;-73
2021/04/16 07:29:54;;;;;;;13.93;7.93;;;;;;;5.23;46.98;95023.28;2985670;39;20071;-72
2021/04/16 07:31:58;;;;;;;10.70;6.55;;;;;;;5.25;46.87;95021.38;2994114;39;20035;-72
2021/04/16 07:34:01;;;;;;;10.32;5.60;;;;;;;5.54;46.03;95013.91;2977877;39;20332;-72
2021/04/16 07:36:17;;;;;;;6.88;5.55;;;;;;;5.04;45.88;95009.09;2999651;39;20050;-89
2021/04/16 07:38:30;;;;;;;13.85;7.82;;;;;;;5.12;47.81;95018.91;2980535;39;20149;-87
2021/04/16 07:40:36;;;;;;;10.90;6.13;;;;;;;5.21;47.71;95025.16;2988024;39;20355;-85
2021/04/16 07:42:46;;;;;;;10.82;7.63;;;;;;;5.19;48.01;95014.06;2986700;39;20092;-87
2021/04/16 07:45:05;;;;;;;8.88;6.68;;;;;;;5.20;47.07;95029.50;2987914;39;20028;-86
2021/04/16 07:47:12;;;;;;;8.40;5.18;;;;;;;4.75;47.12;95019.09;2996848;39;20051;-86
2021/04/16 07:49:17;;;;;;;10.23;5.50;;;;;;;5.11;46.76;95012.88;2997110;39;20083;-88
2021/04/16 07:51:30;;;;;;;11.80;6.20;;;;;;;5.51;45.93;95014.16;2986983;39;20040;-88
2021/04/16 07:53:34;;;;;;;8.60;4.95;;;;;;;5.81;45.27;95012.66;2987035;39;20062;-85
2021/04/16 07:55:36;;;;;;;6.60;4.63;;;;;;;5.92;44.34;95028.25;2997309;39;20034;-86
2021/04/16 07:57:40;;;;;;;6.53;4.88;;;;;;;5.53;44.75;95020.06;2990165;39;20047;-87
2021/04/16 07:59:59;;;;;;;8.35;5.28;;;;;;;5.46;45.72;95014.53;2981047;39;20452;-86
2021/04/16 08:02:17;;;;;;;6.18;4.57;;;;;;;5.19;45.86;95019.25;2992119;39;20035;-87
2021/04/16 08:04:21;;;;;;;8.02;5.78;;;;;;;5.46;45.51;95022.31;2990338;39;20062;-86
2021/04/16 08:06:33;;;;;;;8.70;4.88;;;;;;;5.55;44.12;95025.97;2997898;39;20326;-88
2021/04/16 08:08:45;;;;;;;5.53;3.75;;;;;;;5.97;42.28;95018.31;2987791;39;20401;-88
2021/04/16 08:10:50;;;;;;;5.80;3.78;;;;;;;6.22;41.46;95018.97;2979761;39;20355;-85
2021/04/16 08:13:13;;;;;;;7.15;4.50;;;;;;;6.32;40.66;95012.03;2996760;39;20069;-88
2021/04/16 08:15:23;;;;;;;8.30;4.13;;;;;;;6.09;41.79;95014.75;2997669;39;20389;-87
2021/04/16 08:17:30;;;;;;;6.20;4.35;;;;;;;6.32;41.10;95014.63;2972250;39;20092;-85
2021/04/16 08:19:35;;;;;;;6.93;3.97;;;;;;;6.22;42.09;95024.16;2977194;39;20040;-89
2021/04/16 08:21:42;;;;;;;4.43;3.28;;;;;;;5.92;40.93;95034.25;2997186;39;20052;-87
2021/04/16 08:23:56;;;;;;;5.03;4.05;;;;;;;5.43;44.25;95032.94;3004628;39;20031;-88
2021/04/16 08:25:58;;;;;;;12.18;4.40;;;;;;;5.76;43.49;95018.22;2996138;39;20039;-87
2021/04/16 08:28:07;;;;;;;6.60;4.25;;;;;;;6.09;42.45;95017.34;2988467;39;20153;-89
2021/04/16 08:30:12;;;;;;;8.07;4.10;;;;;;;6.28;41.58;95011.47;2986967;39;20075;-91
2021/04/16 08:32:33;;;;;;;6.18;3.95;;;;;;;6.07;40.66;95019.25;2987383;39;20038;-86
2021/04/16 08:34:47;;;;;;;5.75;3.88;;;;;;;6.17;41.06;95029.72;2980435;39;20060;-88
2021/04/16 08:36:49;;;;;;;7.25;4.00;;;;;;;6.58;40.18;95015.09;2987560;39;20126;-89
2021/04/16 08:39:00;;;;;;;5.85;4.00;;;;;;;6.34;39.15;95026.56;2982635;39;20072;-89
2021/04/16 08:41:04;;;;;;;6.97;4.00;;;;;;;6.05;38.50;95018.53;2978094;40;20062;-90
2021/04/16 08:43:07;;;;;;;5.20;3.75;;;;;;;6.03;38.81;95004.84;2984486;39;20073;-89
2021/04/16 08:45:12;;;;;;;4.95;3.60;;;;;;;5.91;40.12;95014.41;2990149;39;20489;-88
2021/04/16 08:47:26;;;;;;;6.55;3.80;;;;;;;5.98;40.52;95007.00;2991378;39;20025;-89
2021/04/16 08:49:33;;;;;;;5.88;3.65;;;;;;;6.14;40.72;95009.97;2978194;39;20056;-89
2021/04/16 08:51:36;;;;;;;6.75;4.10;;;;;;;5.72;40.80;95009.88;2986620;39;20096;-90
2021/04/16 08:53:41;;;;;;;7.27;4.50;;;;;;;6.05;41.40;95015.13;2987078;39;20032;-90
2021/04/16 08:55:45;;;;;;;5.75;3.45;;;;;;;6.02;40.04;94997.13;2996219;39;20292;-87
2021/04/16 08:58:01;;;;;;;5.25;3.80;;;;;;;6.21;39.11;94991.28;2995786;39;20381;-87
2021/04/16 09:00:23;;;;;;;4.93;3.17;;;;;;;6.72;38.18;94978.34;2981078;40;20095;-89
2021/04/16 09:02:44;;;;;;;6.85;4.22;;;;;;;7.04;38.16;94973.97;2979159;39;20032;-87
2021/04/16 09:05:09;;;;;;;6.75;4.30;;;;;;;7.42;38.38;94962.88;2988041;39;20349;-85
2021/04/16 09:07:33;;;;;;;7.18;5.03;;;;;;;7.20;38.39;94969.09;2996020;39;20027;-88
2021/04/16 09:09:48;;;;;;;5.68;3.83;;;;;;;6.66;39.47;94965.81;2988217;39;20042;-90
2021/04/16 09:11:51;;;;;;;4.40;3.72;;;;;;;6.63;39.62;94973.09;2996784;39;20062;-89
2021/04/16 09:13:52;;;;;;;4.75;3.78;;;;;;;6.67;39.68;94956.25;2998438;39;20063;-87
2021/04/16 09:16:15;;;;;;;5.80;3.38;;;;;;;6.79;39.05;94957.00;2997888;39;20657;-89
2021/04/16 09:18:25;;;;;;;6.05;3.33;;;;;;;6.87;39.84;94955.38;2997484;39;20035;-88
2021/04/16 09:20:32;;;;;;;4.90;3.80;;;;;;;6.93;39.83;94954.88;2979341;39;20036;-87
2021/04/16 09:22:36;;;;;;;4.63;3.35;;;;;;;7.01;38.96;94949.00;3005795;39;20394;-87
2021/04/16 09:24:49;;;;;;;7.63;3.90;;;;;;;6.94;39.49;94938.28;2988374;39;20341;-91
2021/04/16 09:26:50;;;;;;;6.25;4.15;;;;;;;6.76;40.41;94942.47;3005834;39;20035;-86
2021/04/16 09:28:55;;;;;;;5.35;3.65;;;;;;;6.76;40.78;94945.06;3005535;39;20083;-89
2021/04/16 09:31:24;;;;;;;5.93;4.38;;;;;;;6.80;40.20;94943.00;2995724;39;20036;-88
2021/04/16 09:33:35;;;;;;;6.97;4.20;;;;;;;6.81;40.52;94953.28;2991319;39;20044;-89
2021/04/16 09:35:57;;;;;;;7.30;4.05;;;;;;;6.79;40.64;94946.56;2988979;39;20035;-87
2021/04/16 09:38:25;;;;;;;7.72;4.78;;;;;;;7.02;40.05;94936.81;2977582;39;20067;-74
2021/04/16 09:40:30;;;;;;;11.15;3.63;;;;;;;7.22;39.42;94935.09;2963085;39;20364;-71
2021/04/16 09:42:36;;;;;;;8.63;4.38;;;;;;;6.95;40.38;94933.91;2982996;39;20100;-73
2021/04/16 09:44:44;;;;;;;7.25;4.20;;;;;;;6.95;40.09;94931.31;2992810;39;20087;-72
2021/04/16 09:46:48;;;;;;;6.47;4.22;;;;;;;6.79;40.27;94923.97;2983429;39;20128;-72
2021/04/16 09:48:51;;;;;;;6.50;4.50;;;;;;;7.15;40.07;94942.63;2992697;39;20050;-73
2021/04/16 09:50:58;;;;;;;6.07;3.55;;;;;;;7.09;39.61;94940.53;2992384;39;20142;-73
2021/04/16 09:53:14;;;;;;;6.00;3.83;;;;;;;7.35;39.61;94931.28;2992840;39;20047;-72
2021/04/16 09:56:09;;;;;;;6.68;3.92;;;;;;;7.36;38.30;94917.31;2983026;39;20055;-75